CFM2 weather

Birch Mountain Airport
Birch Mountain, Alberta, Canada

Public forecast

Using degrees Celsius for public forecast. Weather courtesy of forecast.io.

METAR (pilot weather report)

Closest report is Fort McMurray Airport, 65.9 nm (122.1 km) SSE. Retrieved 2019/08/21 01:00 UTC (42 minutes ago):

CYMM 210100Z AUTO 11008KT 9SM CLR 19/07 A3010 RMK SLP207 DENSITY ALT 1700FT

TAF (pilot weather forecast)

Closest forecast is Fort McMurray Airport, 65.9 nm (122.1 km) SSE. Retrieved 2019/08/21 01:42 UTC (8 seconds ago):

TAF CYMM 210038Z 2101/2113 11010KT P6SM SKC RMK FCST BASED ON AUTO OBS. NXT FCST BY 210700Z